Airport ICAO


18:28 UTC

10°C

Overcast


An affordable passengers' Moving Map for your aircraft. Made for the iPad and the iPhone
More information here

LFOB Tille


Beauvais FRANCE   VFR


METAR LFOB 231800Z AUTO 02004KT 7000 OVC037 10/07 Q1030 NOSIG 0h28min

TAF LFOB 231700Z 2318/2418 02008KT 7000 OVC025 TEMPO 2323/2409 4000 RA OVC008 1h28min





NOTAMS

OPEN